Time;durP1;ratioP1;P1;durP2;ratioP2;P2;SDS_P1;SDS_P2;PMS_P1;PMS_P2;Temp;Humidity;BMP_temperature;BMP_pressure;BME280_temperature;BME280_humidity;BME280_pressure;Samples;Min_cycle;Max_cycle;Signal;HPM_P1;HPM_P2
2024/02/13 00:01:42;;;;;;;6.53;2.63;;;2.10;99.90;;;;;;5053278;28;20021;-76
2024/02/13 00:04:10;;;;;;;2.85;2.47;;;2.10;99.90;;;;;;5054985;28;20025;-78
2024/02/13 00:06:36;;;;;;;3.15;2.17;;;2.10;99.90;;;;;;5054931;28;20017;-76
2024/02/13 00:09:02;;;;;;;3.53;2.83;;;2.10;99.90;;;;;;5053347;28;20078;-76
2024/02/13 00:11:28;;;;;;;3.35;2.28;;;2.20;99.90;;;;;;5053171;28;20491;-76
2024/02/13 00:13:53;;;;;;;1.85;1.60;;;2.20;99.90;;;;;;5053278;28;20403;-75
2024/02/13 00:16:20;;;;;;;2.97;2.28;;;2.20;99.90;;;;;;5053632;28;20039;-77
2024/02/13 00:18:52;;;;;;;4.03;2.20;;;2.20;99.90;;;;;;5053196;28;20048;-76
2024/02/13 00:21:18;;;;;;;1.95;1.77;;;2.20;99.90;;;;;;5052947;28;20048;-76
2024/02/13 00:23:44;;;;;;;5.45;2.25;;;2.20;99.90;;;;;;5053161;28;20052;-76
2024/02/13 00:26:10;;;;;;;2.88;1.50;;;2.20;99.90;;;;;;5054304;28;20368;-75
2024/02/13 00:28:39;;;;;;;2.33;2.13;;;2.20;99.90;;;;;;5053077;28;20029;-76
2024/02/13 00:31:05;;;;;;;2.85;1.92;;;2.30;99.90;;;;;;5054214;28;20029;-76
2024/02/13 00:33:36;;;;;;;2.55;1.80;;;2.40;99.90;;;;;;5053170;28;20031;-76
2024/02/13 00:36:03;;;;;;;3.60;2.08;;;2.40;99.90;;;;;;5054293;28;20036;-76
2024/02/13 00:38:31;;;;;;;2.38;1.98;;;2.40;99.90;;;;;;5053741;28;20430;-77
2024/02/13 00:40:57;;;;;;;2.47;1.92;;;2.50;99.90;;;;;;5054380;28;20021;-77
2024/02/13 00:43:23;;;;;;;6.40;1.70;;;2.50;99.90;;;;;;5054786;28;20024;-76
2024/02/13 00:45:49;;;;;;;3.00;1.63;;;2.40;99.90;;;;;;5054008;28;20036;-76
2024/02/13 00:48:18;;;;;;;1.55;1.23;;;2.50;99.90;;;;;;5054019;28;20028;-76
2024/02/13 00:50:46;;;;;;;3.33;1.90;;;2.40;99.90;;;;;;5053768;28;20059;-76
2024/02/13 00:53:15;;;;;;;2.53;1.40;;;2.40;99.90;;;;;;5053803;28;20029;-75
2024/02/13 00:55:42;;;;;;;1.95;1.20;;;2.30;99.90;;;;;;5052753;28;20032;-76
2024/02/13 00:58:08;;;;;;;3.00;1.70;;;2.30;99.90;;;;;;5053745;28;20107;-76
2024/02/13 01:00:34;;;;;;;1.52;1.42;;;2.30;99.90;;;;;;5052168;28;20108;-76
2024/02/13 01:03:01;;;;;;;2.22;1.50;;;2.30;99.90;;;;;;5052527;28;20025;-76
2024/02/13 01:05:30;;;;;;;1.65;1.30;;;2.40;99.90;;;;;;5053994;28;20467;-76
2024/02/13 01:07:56;;;;;;;2.20;1.35;;;2.40;99.90;;;;;;5052405;28;20025;-76
2024/02/13 01:10:22;;;;;;;1.30;1.20;;;2.40;99.90;;;;;;5052202;28;20530;-75
2024/02/13 01:12:48;;;;;;;4.88;1.65;;;2.40;99.90;;;;;;5053681;28;20021;-76
2024/02/13 01:15:14;;;;;;;1.73;1.63;;;2.40;99.90;;;;;;5053662;28;20032;-76
2024/02/13 01:17:41;;;;;;;2.00;1.45;;;2.40;99.90;;;;;;5052044;28;20032;-76
2024/02/13 01:20:12;;;;;;;7.18;2.65;;;2.40;99.90;;;;;;5052062;28;20407;-76
2024/02/13 01:22:38;;;;;;;2.45;1.75;;;2.50;99.90;;;;;;5052605;28;20106;-76
2024/02/13 01:25:05;;;;;;;3.17;1.50;;;2.50;99.90;;;;;;5052795;28;20021;-76
2024/02/13 01:27:31;;;;;;;3.00;1.50;;;2.50;99.90;;;;;;5053275;28;20406;-77
2024/02/13 01:29:57;;;;;;;5.97;2.80;;;2.50;99.90;;;;;;5053392;28;20053;-77
2024/02/13 01:32:24;;;;;;;2.95;2.10;;;2.50;99.90;;;;;;5053507;28;20491;-77
2024/02/13 01:34:50;;;;;;;4.95;2.63;;;2.40;99.90;;;;;;5052050;28;20115;-77
2024/02/13 01:37:16;;;;;;;2.25;1.83;;;2.30;99.90;;;;;;5051456;28;20477;-76
2024/02/13 01:39:42;;;;;;;6.40;1.70;;;2.30;99.90;;;;;;5052743;28;20117;-77
2024/02/13 01:42:11;;;;;;;2.63;2.00;;;2.30;99.90;;;;;;5052997;28;20446;-78
2024/02/13 01:44:37;;;;;;;3.83;2.45;;;2.30;99.90;;;;;;5053161;28;20100;-77
2024/02/13 01:47:03;;;;;;;4.38;2.30;;;2.40;99.90;;;;;;5053242;28;20013;-77
2024/02/13 01:49:30;;;;;;;4.07;2.08;;;2.30;99.90;;;;;;5052411;28;20021;-77
2024/02/13 01:51:58;;;;;;;6.75;1.60;;;2.20;99.90;;;;;;5052404;28;20403;-76
2024/02/13 01:54:26;;;;;;;3.80;1.85;;;2.20;99.90;;;;;;5052615;28;20028;-76
2024/02/13 01:56:52;;;;;;;3.38;1.83;;;2.20;99.90;;;;;;5051491;28;20055;-77
2024/02/13 01:59:18;;;;;;;4.03;1.90;;;2.20;99.90;;;;;;5052411;28;20025;-77
2024/02/13 02:01:44;;;;;;;2.33;1.80;;;2.20;99.90;;;;;;5051086;28;20123;-77
2024/02/13 02:04:11;;;;;;;2.40;1.92;;;2.10;99.90;;;;;;5052789;28;20059;-77
2024/02/13 02:06:37;;;;;;;1.52;1.42;;;2.20;99.90;;;;;;5051257;28;20032;-77
2024/02/13 02:09:05;;;;;;;1.90;1.25;;;2.10;99.90;;;;;;5051257;28;20082;-76
2024/02/13 02:11:31;;;;;;;3.58;2.05;;;2.10;99.90;;;;;;5052510;28;20025;-77
2024/02/13 02:13:58;;;;;;;2.85;2.40;;;2.10;99.90;;;;;;5052803;28;20068;-78
2024/02/13 02:16:24;;;;;;;3.10;2.30;;;2.10;99.90;;;;;;5052481;28;20075;-76
2024/02/13 02:18:50;;;;;;;2.50;1.80;;;2.20;99.90;;;;;;5052547;28;20572;-77
2024/02/13 02:21:17;;;;;;;3.45;1.70;;;2.20;99.90;;;;;;5051183;28;20021;-77
2024/02/13 02:23:42;;;;;;;2.92;1.85;;;2.10;99.90;;;;;;5052884;28;20012;-77
2024/02/13 02:26:08;;;;;;;1.90;1.70;;;2.10;99.90;;;;;;5051366;28;20471;-76
2024/02/13 02:28:34;;;;;;;2.28;1.52;;;2.10;99.90;;;;;;5051086;28;20039;-76
2024/02/13 02:31:00;;;;;;;4.10;1.30;;;2.10;99.90;;;;;;5052293;28;20033;-76
2024/02/13 02:33:25;;;;;;;2.25;1.38;;;2.20;99.90;;;;;;5036954;28;20032;-77
2024/02/13 02:35:53;;;;;;;2.28;1.10;;;2.20;99.90;;;;;;5031112;28;20060;-76
2024/02/13 02:38:20;;;;;;;2.35;1.50;;;2.20;99.90;;;;;;5030783;28;20036;-76
2024/02/13 02:40:47;;;;;;;1.63;1.02;;;2.20;99.90;;;;;;5032157;28;20448;-76
2024/02/13 02:43:13;;;;;;;1.38;1.27;;;2.20;99.90;;;;;;5031222;28;20030;-76
2024/02/13 02:45:39;;;;;;;3.05;1.60;;;2.20;99.90;;;;;;5032801;28;20430;-76
2024/02/13 02:48:05;;;;;;;1.83;1.58;;;2.30;99.90;;;;;;5032465;28;20022;-76
2024/02/13 02:50:31;;;;;;;2.28;1.88;;;2.20;99.90;;;;;;5032127;28;20026;-76
2024/02/13 02:52:56;;;;;;;2.63;1.80;;;2.30;99.90;;;;;;5031063;28;20028;-76
2024/02/13 02:55:22;;;;;;;1.70;1.60;;;2.20;99.90;;;;;;5032616;28;20403;-77
2024/02/13 02:57:49;;;;;;;1.73;1.63;;;2.30;99.90;;;;;;5031555;28;20025;-75
2024/02/13 03:00:17;;;;;;;1.88;1.67;;;2.30;99.90;;;;;;5032378;28;20028;-77
2024/02/13 03:02:43;;;;;;;3.05;2.05;;;2.30;99.90;;;;;;5034612;28;20017;-76
2024/02/13 03:05:09;;;;;;;3.42;2.30;;;2.30;99.90;;;;;;5035852;28;20104;-76
2024/02/13 03:07:35;;;;;;;3.80;2.63;;;2.20;99.90;;;;;;5037468;28;20067;-77
2024/02/13 03:10:02;;;;;;;4.47;3.35;;;2.20;99.90;;;;;;5036981;28;20395;-76
2024/02/13 03:12:28;;;;;;;4.28;3.72;;;2.20;99.90;;;;;;5037747;28;20018;-77
2024/02/13 03:14:53;;;;;;;5.15;2.63;;;2.10;99.90;;;;;;5035738;28;20036;-76
2024/02/13 03:17:22;;;;;;;3.13;2.05;;;2.20;99.90;;;;;;5034692;28;20025;-76
2024/02/13 03:19:49;;;;;;;2.83;1.77;;;2.10;99.90;;;;;;5035280;28;20026;-77
2024/02/13 03:22:17;;;;;;;2.78;2.35;;;2.10;99.90;;;;;;5035683;28;20484;-77
2024/02/13 03:24:43;;;;;;;3.70;2.60;;;2.00;99.90;;;;;;5034315;28;20524;-77
2024/02/13 03:27:09;;;;;;;5.70;2.67;;;2.00;99.90;;;;;;5035589;28;20025;-77
2024/02/13 03:29:35;;;;;;;4.07;2.38;;;2.00;99.90;;;;;;5033940;28;20112;-77
2024/02/13 03:32:01;;;;;;;3.30;1.75;;;1.90;99.90;;;;;;5034346;28;20026;-77
2024/02/13 03:34:27;;;;;;;2.95;2.30;;;1.90;99.90;;;;;;5035475;28;20021;-77
2024/02/13 03:36:52;;;;;;;3.40;2.13;;;1.90;99.90;;;;;;5037230;28;20025;-76
2024/02/13 03:39:18;;;;;;;4.35;2.35;;;1.90;99.90;;;;;;5035008;28;20533;-76
2024/02/13 03:41:47;;;;;;;5.25;2.92;;;1.90;99.90;;;;;;5035074;28;20025;-76
2024/02/13 03:44:13;;;;;;;2.20;2.00;;;1.90;99.90;;;;;;5035237;28;20468;-76
2024/02/13 03:46:40;;;;;;;3.38;2.58;;;1.90;99.90;;;;;;5035161;28;20025;-75
2024/02/13 03:49:09;;;;;;;2.17;1.85;;;1.80;99.90;;;;;;5033562;28;20117;-76
2024/02/13 03:51:38;;;;;;;4.90;1.92;;;1.70;99.90;;;;;;5034985;28;20048;-76
2024/02/13 03:54:08;;;;;;;2.40;1.58;;;1.80;99.90;;;;;;5033774;28;20028;-75
2024/02/13 03:56:38;;;;;;;3.20;1.95;;;1.80;99.90;;;;;;5034903;28;20033;-75
2024/02/13 03:59:04;;;;;;;2.55;2.35;;;1.80;99.90;;;;;;5033320;28;20026;-76
2024/02/13 04:01:30;;;;;;;2.45;1.77;;;1.90;99.90;;;;;;5034866;28;20044;-76
2024/02/13 04:03:55;;;;;;;1.67;1.40;;;1.70;99.90;;;;;;5034785;28;20484;-75
2024/02/13 04:06:21;;;;;;;2.35;1.85;;;1.80;99.90;;;;;;5034649;28;20083;-76
2024/02/13 04:08:47;;;;;;;2.33;1.67;;;1.80;99.90;;;;;;5033519;28;20113;-76
2024/02/13 04:11:13;;;;;;;6.60;2.58;;;1.80;99.90;;;;;;5033151;28;20026;-75
2024/02/13 04:13:40;;;;;;;3.15;2.20;;;2.00;99.90;;;;;;5034059;28;20112;-76
2024/02/13 04:16:07;;;;;;;2.28;1.88;;;1.90;99.90;;;;;;5034848;28;20364;-76
2024/02/13 04:18:37;;;;;;;2.00;1.83;;;1.90;99.90;;;;;;5052256;28;20033;-76
2024/02/13 04:21:02;;;;;;;7.18;3.50;;;1.90;99.90;;;;;;5054323;28;20475;-76
2024/02/13 04:23:28;;;;;;;3.15;2.60;;;1.90;99.90;;;;;;5054513;28;20028;-76
2024/02/13 04:25:54;;;;;;;4.22;2.42;;;1.90;99.90;;;;;;5053121;28;20017;-75
2024/02/13 04:28:22;;;;;;;3.25;2.60;;;2.00;99.90;;;;;;5054369;28;20029;-76
2024/02/13 04:30:48;;;;;;;4.30;2.30;;;1.90;99.90;;;;;;5053968;28;20021;-76
2024/02/13 04:33:14;;;;;;;3.67;1.80;;;1.90;99.90;;;;;;5052977;28;20025;-78
2024/02/13 04:35:40;;;;;;;1.55;1.45;;;2.00;99.90;;;;;;5052995;28;20035;-76
2024/02/13 04:38:06;;;;;;;1.83;1.67;;;2.00;99.90;;;;;;5053987;28;20376;-76
2024/02/13 04:40:36;;;;;;;3.13;1.85;;;2.00;99.90;;;;;;5052538;28;20021;-76
2024/02/13 04:43:01;;;;;;;1.40;1.30;;;2.00;99.90;;;;;;5052934;28;20025;-76
2024/02/13 04:45:27;;;;;;;1.67;1.40;;;2.10;99.90;;;;;;5054291;28;20487;-76
2024/02/13 04:47:53;;;;;;;2.45;1.00;;;2.10;99.90;;;;;;5052506;28;20676;-76
2024/02/13 04:50:19;;;;;;;2.17;1.42;;;2.10;99.90;;;;;;5053979;28;20029;-75
2024/02/13 04:52:45;;;;;;;3.53;1.48;;;2.20;99.90;;;;;;5053840;28;20025;-76
2024/02/13 04:55:10;;;;;;;1.90;1.60;;;2.20;99.90;;;;;;5053768;28;20373;-76
2024/02/13 04:57:38;;;;;;;2.80;2.03;;;2.20;99.90;;;;;;5052161;28;20112;-76
2024/02/13 05:00:24;;;;;;;2.75;1.83;;;2.20;99.90;;;;;;5053087;28;20028;-76
2024/02/13 05:08:21;;;;;;;4.47;2.53;;;2.30;99.90;;;;;;5053633;28;20036;-76
2024/02/13 05:10:48;;;;;;;2.95;2.75;;;2.30;99.90;;;;;;5052310;28;20025;-75
2024/02/13 05:13:15;;;;;;;4.05;3.42;;;2.40;99.90;;;;;;5053739;28;20479;-76
2024/02/13 05:15:41;;;;;;;3.00;2.80;;;2.40;99.90;;;;;;5052140;28;20075;-76
2024/02/13 05:18:07;;;;;;;5.03;2.35;;;2.50;99.90;;;;;;5053331;28;20049;-76
2024/02/13 05:20:35;;;;;;;2.35;2.15;;;2.50;99.90;;;;;;5053167;28;20103;-76
2024/02/13 05:23:01;;;;;;;2.08;1.70;;;2.50;99.90;;;;;;5051957;28;20509;-75
2024/02/13 05:25:27;;;;;;;3.20;1.85;;;2.60;99.90;;;;;;5051041;28;20025;-75
2024/02/13 05:27:53;;;;;;;1.23;1.13;;;2.60;99.90;;;;;;5051789;28;20017;-76
2024/02/13 05:30:20;;;;;;;2.78;1.95;;;2.70;99.90;;;;;;5051548;28;20032;-76
2024/02/13 05:32:46;;;;;;;2.22;1.60;;;2.70;99.90;;;;;;5052083;28;20025;-76
2024/02/13 05:35:12;;;;;;;6.03;1.60;;;2.80;99.90;;;;;;5053175;28;20028;-76
2024/02/13 05:37:38;;;;;;;5.25;1.85;;;2.80;99.90;;;;;;5051601;28;20029;-76
2024/02/13 05:40:05;;;;;;;2.75;1.90;;;2.80;99.90;;;;;;5052709;28;20025;-76
2024/02/13 05:42:31;;;;;;;2.17;1.85;;;2.90;99.90;;;;;;5051727;28;20025;-76
2024/02/13 05:44:57;;;;;;;3.63;1.50;;;2.90;99.90;;;;;;5052957;28;20094;-76
2024/02/13 05:47:23;;;;;;;3.45;2.20;;;2.80;99.90;;;;;;5052921;28;20424;-76
2024/02/13 05:49:49;;;;;;;3.03;2.22;;;2.80;99.90;;;;;;5051361;28;20060;-76
2024/02/13 05:52:16;;;;;;;6.38;4.05;;;2.70;99.90;;;;;;5051946;28;20032;-76
2024/02/13 05:54:42;;;;;;;2.78;2.55;;;2.80;99.90;;;;;;5051583;28;20082;-75
2024/02/13 05:57:07;;;;;;;4.63;2.53;;;2.90;99.90;;;;;;5052593;28;20503;-76
2024/02/13 05:59:34;;;;;;;2.72;2.50;;;2.80;99.90;;;;;;5051567;28;20025;-76
2024/02/13 06:01:59;;;;;;;4.50;3.30;;;2.80;99.90;;;;;;5052559;28;20517;-76
2024/02/13 06:04:26;;;;;;;3.47;2.15;;;2.80;99.90;;;;;;5052598;28;20021;-76
2024/02/13 06:06:52;;;;;;;6.35;3.50;;;2.70;99.90;;;;;;5052985;28;20466;-76
2024/02/13 06:09:27;;;;;;;6.25;4.10;;;2.60;99.90;;;;;;5052977;28;20506;-76
2024/02/13 06:11:53;;;;;;;10.00;5.47;;;2.60;99.90;;;;;;5052660;28;20029;-75
2024/02/13 06:14:19;;;;;;;6.22;4.13;;;2.50;99.90;;;;;;5052463;28;20031;-75
2024/02/13 06:16:44;;;;;;;6.38;4.63;;;2.50;99.90;;;;;;5051465;28;20032;-76
2024/02/13 06:19:11;;;;;;;5.75;2.38;;;2.50;99.90;;;;;;5051040;28;20029;-75
2024/02/13 06:21:36;;;;;;;8.27;2.80;;;3.50;99.90;;;;;;5052198;28;20033;-76
2024/02/13 06:24:02;;;;;;;3.95;2.35;;;3.40;99.90;;;;;;5053085;28;20021;-75
2024/02/13 06:26:28;;;;;;;5.53;2.90;;;3.10;99.90;;;;;;5055391;28;20013;-75
2024/02/13 06:28:55;;;;;;;4.13;2.78;;;2.90;99.90;;;;;;5052596;28;20020;-75
2024/02/13 06:31:21;;;;;;;6.80;3.00;;;2.80;99.90;;;;;;5050827;28;20050;-74
2024/02/13 06:33:46;;;;;;;7.70;4.07;;;2.70;99.90;;;;;;5052163;28;20411;-76
2024/02/13 06:36:12;;;;;;;6.82;3.53;;;2.70;99.90;;;;;;5052195;28;20071;-74
2024/02/13 06:38:38;;;;;;;7.55;3.65;;;2.70;99.90;;;;;;5051741;28;20029;-74
2024/02/13 06:41:05;;;;;;;9.27;4.18;;;2.60;99.90;;;;;;5052102;28;20017;-75
2024/02/13 06:43:33;;;;;;;7.53;3.55;;;2.60;99.90;;;;;;5051457;28;20120;-76
2024/02/13 06:45:58;;;;;;;6.40;3.78;;;2.70;99.90;;;;;;5052027;28;20507;-74
2024/02/13 06:48:24;;;;;;;5.72;3.25;;;2.60;99.90;;;;;;5052185;28;20059;-74
2024/02/13 06:50:49;;;;;;;6.93;3.15;;;2.60;99.90;;;;;;5050444;28;20156;-74
2024/02/13 06:53:15;;;;;;;4.50;2.50;;;2.50;99.90;;;;;;5052130;28;20025;-74
2024/02/13 06:55:41;;;;;;;3.53;2.10;;;2.60;99.90;;;;;;5052025;28;20060;-74
2024/02/13 06:58:06;;;;;;;7.65;3.35;;;2.60;99.90;;;;;;5051729;28;20067;-74
2024/02/13 07:00:32;;;;;;;7.68;3.70;;;2.60;99.90;;;;;;5052374;28;20096;-75
2024/02/13 07:02:59;;;;;;;5.53;3.17;;;2.60;99.90;;;;;;5050575;28;20402;-74
2024/02/13 07:05:29;;;;;;;9.35;4.60;;;2.60;99.90;;;;;;5051727;28;20021;-74
2024/02/13 07:07:55;;;;;;;5.88;3.70;;;2.60;99.90;;;;;;5051916;28;20144;-74
2024/02/13 07:10:21;;;;;;;10.75;4.20;;;2.80;99.90;;;;;;5045732;28;20080;-75
2024/02/13 07:12:47;;;;;;;9.05;3.83;;;2.80;99.90;;;;;;5030365;28;20475;-74
2024/02/13 07:15:13;;;;;;;11.20;4.38;;;2.90;99.90;;;;;;5031360;28;20029;-75
2024/02/13 07:17:38;;;;;;;10.18;3.40;;;2.90;99.90;;;;;;5031436;28;20056;-75
2024/02/13 07:20:05;;;;;;;8.57;2.30;;;3.00;99.90;;;;;;5031339;28;20108;-74
2024/02/13 07:22:30;;;;;;;6.50;2.80;;;3.00;99.90;;;;;;5031616;28;20025;-74
2024/02/13 07:24:58;;;;;;;5.70;3.40;;;3.10;99.90;;;;;;5031591;28;20031;-75
2024/02/13 07:27:24;;;;;;;6.55;3.75;;;3.10;99.90;;;;;;5031724;28;20112;-74
2024/02/13 07:29:50;;;;;;;3.70;3.25;;;3.10;99.90;;;;;;5031585;28;20057;-76
2024/02/13 07:32:17;;;;;;;4.63;3.17;;;3.20;99.90;;;;;;5031745;28;20053;-75
2024/02/13 07:34:43;;;;;;;6.13;2.95;;;3.20;99.90;;;;;;5030418;28;20025;-75
2024/02/13 07:37:09;;;;;;;5.57;2.38;;;3.30;99.90;;;;;;5031597;28;20026;-75
2024/02/13 07:39:35;;;;;;;3.45;2.45;;;3.30;99.90;;;;;;5030084;28;20033;-75
2024/02/13 07:42:01;;;;;;;13.73;6.78;;;3.30;99.90;;;;;;5031621;28;20041;-75
2024/02/13 07:44:29;;;;;;;5.97;3.17;;;3.40;99.90;;;;;;5030438;28;20064;-75
2024/02/13 07:46:58;;;;;;;6.78;3.58;;;3.40;99.90;;;;;;5030358;28;20032;-76
2024/02/13 07:49:26;;;;;;;3.83;3.15;;;3.50;99.90;;;;;;5033810;28;20512;-75
2024/02/13 07:51:52;;;;;;;9.40;2.60;;;3.50;99.90;;;;;;5033600;28;20033;-75
2024/02/13 07:54:22;;;;;;;5.47;3.50;;;3.50;99.90;;;;;;5033530;28;20025;-75
2024/02/13 07:56:52;;;;;;;5.90;3.00;;;3.80;99.90;;;;;;5033452;28;20026;-75
2024/02/13 07:59:18;;;;;;;8.38;4.45;;;3.80;99.90;;;;;;5034653;28;20040;-74
2024/02/13 08:01:44;;;;;;;7.53;3.22;;;3.90;99.90;;;;;;5034441;28;20025;-74
2024/02/13 08:04:09;;;;;;;7.20;3.25;;;4.00;99.90;;;;;;5044616;28;20138;-75
2024/02/13 08:06:37;;;;;;;6.47;2.67;;;4.10;99.90;;;;;;5053425;28;20487;-76
2024/02/13 08:09:06;;;;;;;4.55;2.30;;;4.10;99.90;;;;;;5041314;28;20026;-75
2024/02/13 08:11:33;;;;;;;9.13;4.03;;;4.10;99.90;;;;;;5035373;28;20029;-78
2024/02/13 08:13:58;;;;;;;3.90;3.45;;;4.20;99.90;;;;;;5035900;28;20052;-79
2024/02/13 08:16:24;;;;;;;4.40;3.25;;;4.20;99.90;;;;;;5036144;28;20531;-75
2024/02/13 08:18:52;;;;;;;6.43;3.50;;;4.40;99.90;;;;;;5035766;28;20732;-75
2024/02/13 08:21:18;;;;;;;3.90;3.10;;;4.50;99.90;;;;;;5033742;28;20029;-75
2024/02/13 08:23:43;;;;;;;4.00;3.05;;;4.60;99.90;;;;;;5034731;28;20361;-73
2024/02/13 08:26:09;;;;;;;2.28;1.77;;;4.70;99.90;;;;;;5033046;28;20392;-72
2024/02/13 08:28:37;;;;;;;2.97;2.30;;;4.80;99.90;;;;;;5034960;28;20025;-73
2024/02/13 08:31:04;;;;;;;3.35;2.25;;;5.10;99.90;;;;;;5032915;28;20033;-74
2024/02/13 08:33:29;;;;;;;6.93;3.83;;;5.20;99.90;;;;;;5033096;28;20104;-74
2024/02/13 08:35:56;;;;;;;7.90;5.20;;;5.40;99.90;;;;;;5034164;28;20021;-73
2024/02/13 08:38:22;;;;;;;4.53;3.08;;;5.50;99.90;;;;;;5033981;28;20037;-74
2024/02/13 08:40:48;;;;;;;8.57;3.88;;;5.60;99.90;;;;;;5033754;28;20036;-74
2024/02/13 08:43:14;;;;;;;9.73;4.97;;;5.70;99.90;;;;;;5033979;28;20514;-74
2024/02/13 08:45:39;;;;;;;3.85;3.30;;;6.00;99.90;;;;;;5034141;28;20030;-74
2024/02/13 08:48:05;;;;;;;3.45;2.80;;;6.10;99.90;;;;;;5034037;28;20101;-73
2024/02/13 08:50:32;;;;;;;4.05;2.42;;;6.20;99.90;;;;;;5033718;28;20030;-72
2024/02/13 08:52:58;;;;;;;11.80;5.55;;;6.40;99.90;;;;;;5034074;28;20427;-73
2024/02/13 08:55:23;;;;;;;8.88;3.03;;;6.50;99.90;;;;;;5032670;28;20511;-74
2024/02/13 08:57:51;;;;;;;3.55;2.60;;;6.60;99.90;;;;;;5032571;28;20112;-73
2024/02/13 09:00:21;;;;;;;3.28;2.10;;;7.00;99.90;;;;;;5032261;28;20028;-74
2024/02/13 09:02:47;;;;;;;2.60;2.05;;;7.30;99.90;;;;;;5034214;28;20466;-73
2024/02/13 09:05:14;;;;;;;3.25;1.52;;;7.50;99.90;;;;;;5033794;28;20018;-74
2024/02/13 09:07:41;;;;;;;2.55;1.92;;;7.80;99.90;;;;;;5032317;28;20552;-74
2024/02/13 09:10:11;;;;;;;2.53;1.60;;;8.10;99.90;;;;;;5032332;28;20407;-74
2024/02/13 09:12:38;;;;;;;1.60;0.88;;;8.30;99.90;;;;;;5032544;28;20118;-74
2024/02/13 09:15:05;;;;;;;2.53;1.30;;;8.60;99.90;;;;;;5033598;28;20038;-73
2024/02/13 09:17:31;;;;;;;0.70;0.70;;;8.90;98.10;;;;;;5033355;28;20546;-73
2024/02/13 09:19:58;;;;;;;0.93;0.80;;;9.10;95.50;;;;;;5033250;28;20030;-73
2024/02/13 09:22:24;;;;;;;2.80;0.77;;;9.30;95.50;;;;;;5033874;28;20361;-72
2024/02/13 09:24:50;;;;;;;0.77;0.77;;;9.40;94.50;;;;;;5032085;28;20029;-73
2024/02/13 09:27:18;;;;;;;2.03;0.63;;;9.50;93.80;;;;;;5033142;28;20104;-72
2024/02/13 09:29:44;;;;;;;1.50;0.70;;;9.60;91.40;;;;;;5031879;28;20060;-74
2024/02/13 09:32:10;;;;;;;0.40;0.40;;;9.60;86.10;;;;;;5032170;28;20079;-73
2024/02/13 09:34:36;;;;;;;1.83;0.55;;;9.60;81.40;;;;;;5032317;28;20046;-74
2024/02/13 09:37:02;;;;;;;3.67;0.47;;;9.80;80.20;;;;;;5032846;28;20022;-74
2024/02/13 09:39:28;;;;;;;2.28;0.40;;;9.90;79.10;;;;;;5033817;28;20025;-75
2024/02/13 09:41:55;;;;;;;2.03;0.40;;;10.00;75.40;;;;;;5033730;28;20075;-75
2024/02/13 09:44:23;;;;;;;1.45;1.35;;;10.00;72.30;;;;;;5034627;28;20108;-75
2024/02/13 09:46:51;;;;;;;0.40;0.40;;;10.10;71.70;;;;;;5036263;28;20388;-75
2024/02/13 09:49:17;;;;;;;0.38;0.38;;;10.10;72.50;;;;;;5034507;28;20026;-74
2024/02/13 09:51:48;;;;;;;0.95;0.75;;;10.20;70.50;;;;;;5039473;28;20032;-74
2024/02/13 09:54:15;;;;;;;2.33;0.73;;;10.30;69.50;;;;;;5037096;28;20022;-74
2024/02/13 09:56:41;;;;;;;1.67;0.75;;;10.30;67.90;;;;;;5035501;28;20084;-74
2024/02/13 09:59:07;;;;;;;0.52;0.40;;;10.40;70.30;;;;;;5035371;28;20033;-75
2024/02/13 10:01:33;;;;;;;0.20;0.20;;;10.60;69.40;;;;;;5033862;28;20534;-74
2024/02/13 10:03:59;;;;;;;0.20;0.20;;;10.70;71.00;;;;;;5033673;28;20104;-74
2024/02/13 10:06:27;;;;;;;1.25;0.30;;;10.70;70.60;;;;;;5033967;28;20022;-74
2024/02/13 10:08:53;;;;;;;0.55;0.55;;;10.70;69.90;;;;;;5034051;28;20021;-75
2024/02/13 10:11:29;;;;;;;0.68;0.30;;;10.70;69.10;;;;;;5035749;28;20060;-74
2024/02/13 10:13:55;;;;;;;0.95;0.55;;;10.70;68.30;;;;;;5037787;28;20025;-74
2024/02/13 10:16:28;;;;;;;0.40;0.40;;;10.70;73.00;;;;;;5037559;28;20060;-75
2024/02/13 10:19:01;;;;;;;1.80;0.30;;;10.80;71.10;;;;;;5036342;28;20075;-75
2024/02/13 10:21:29;;;;;;;0.20;0.20;;;11.00;72.70;;;;;;5035783;28;20514;-77
2024/02/13 10:24:11;;;;;;;2.10;0.77;;;11.20;70.00;;;;;;5034309;28;20025;-76
2024/02/13 10:26:37;;;;;;;0.43;0.43;;;11.20;63.70;;;;;;5031214;28;20029;-76
2024/02/13 10:29:03;;;;;;;1.65;0.28;;;11.30;64.70;;;;;;5032211;28;20025;-76
2024/02/13 10:31:34;;;;;;;1.77;0.40;;;11.30;64.00;;;;;;5031183;28;20048;-76
2024/02/13 10:34:11;;;;;;;3.65;1.50;;;11.40;64.70;;;;;;5032225;28;20022;-76
2024/02/13 10:36:39;;;;;;;4.32;0.50;;;11.40;62.40;;;;;;5031028;28;20104;-75
2024/02/13 10:39:08;;;;;;;0.30;0.30;;;11.40;60.80;;;;;;5030832;28;20400;-75
2024/02/13 10:41:48;;;;;;;1.20;0.30;;;11.40;65.00;;;;;;5030971;28;20033;-74
2024/02/13 10:44:20;;;;;;;0.22;0.20;;;11.40;62.00;;;;;;5032493;28;20064;-75
2024/02/13 10:46:49;;;;;;;5.50;0.57;;;11.30;60.30;;;;;;5032397;28;20053;-75
2024/02/13 10:49:50;;;;;;;0.60;0.22;;;11.30;60.70;;;;;;5030798;28;20026;-74
2024/02/13 10:52:17;;;;;;;1.27;0.40;;;11.40;58.20;;;;;;5028512;28;20029;-75
2024/02/13 10:54:46;;;;;;;0.20;0.20;;;11.40;63.40;;;;;;5030930;28;20025;-75
2024/02/13 10:57:16;;;;;;;1.05;0.20;;;11.40;60.80;;;;;;5032327;28;20022;-75
2024/02/13 10:59:46;;;;;;;0.85;0.20;;;11.50;61.50;;;;;;5030363;28;20049;-74
2024/02/13 11:02:18;;;;;;;0.17;0.17;;;11.60;61.30;;;;;;5031847;28;20036;-76
2024/02/13 11:04:46;;;;;;;0.98;0.40;;;11.50;60.00;;;;;;5032321;28;20063;-75
2024/02/13 11:07:14;;;;;;;0.70;0.30;;;11.50;58.30;;;;;;5031862;28;20472;-75
2024/02/13 11:09:40;;;;;;;0.20;0.20;;;11.40;59.70;;;;;;5031669;28;20017;-73
2024/02/13 11:12:08;;;;;;;10.55;0.55;;;11.40;60.80;;;;;;5031990;28;20476;-75
2024/02/13 11:14:35;;;;;;;1.80;0.43;;;11.40;56.30;;;;;;5030814;28;20029;-75
2024/02/13 11:17:03;;;;;;;1.38;0.22;;;11.40;56.60;;;;;;5030584;28;20041;-75
2024/02/13 11:19:38;;;;;;;0.20;0.20;;;11.50;57.10;;;;;;5031859;28;20047;-74
2024/02/13 11:22:08;;;;;;;0.10;0.10;;;11.60;53.90;;;;;;5031695;28;20025;-76
2024/02/13 11:25:08;;;;;;;1.67;0.20;;;11.70;54.30;;;;;;5035193;28;20026;-75
2024/02/13 11:27:37;;;;;;;1.92;0.38;;;11.90;56.50;;;;;;5035448;28;20017;-75
2024/02/13 11:30:06;;;;;;;0.60;0.30;;;11.90;56.30;;;;;;5035387;28;20029;-76
2024/02/13 11:32:37;;;;;;;20.38;1.48;;;11.80;53.10;;;;;;5036258;28;20094;-75
2024/02/13 11:35:07;;;;;;;0.75;0.35;;;11.80;51.40;;;;;;5035599;28;20022;-75
2024/02/13 11:37:34;;;;;;;2.40;0.43;;;11.50;46.80;;;;;;5035236;28;20507;-75
2024/02/13 11:40:06;;;;;;;0.40;0.20;;;11.20;49.30;;;;;;5035578;28;20030;-75
2024/02/13 11:42:33;;;;;;;1.25;0.35;;;11.10;50.30;;;;;;5035580;28;20108;-75
2024/02/13 11:45:00;;;;;;;0.20;0.20;;;11.10;49.60;;;;;;5035476;28;20021;-75
2024/02/13 11:47:26;;;;;;;0.10;0.10;;;11.10;49.60;;;;;;5034191;28;20113;-75
2024/02/13 11:49:54;;;;;;;1.40;0.38;;;11.20;49.80;;;;;;5034301;28;20025;-75
2024/02/13 11:52:21;;;;;;;0.70;0.38;;;11.20;50.30;;;;;;5034407;28;20032;-75
2024/02/13 11:54:48;;;;;;;2.15;0.30;;;11.40;49.10;;;;;;5035551;28;20403;-74
2024/02/13 11:57:18;;;;;;;1.45;0.25;;;11.50;48.60;;;;;;5034159;28;20114;-74
2024/02/13 11:59:57;;;;;;;1.67;0.40;;;11.40;46.20;;;;;;5034060;28;20025;-76
2024/02/13 12:02:23;;;;;;;0.43;0.30;;;11.50;48.00;;;;;;5034639;28;20044;-74
2024/02/13 12:04:49;;;;;;;0.25;0.20;;;11.60;47.30;;;;;;5035246;28;20025;-75
2024/02/13 12:07:14;;;;;;;201.05;69.88;;;11.70;47.60;;;;;;5035339;28;20487;-75
2024/02/13 12:09:41;;;;;;;63.58;46.47;;;11.80;46.30;;;;;;5034128;28;20061;-74
2024/02/13 12:12:12;;;;;;;1.98;0.90;;;11.90;47.30;;;;;;5035461;28;20029;-74
2024/02/13 12:14:39;;;;;;;0.70;0.10;;;11.90;47.20;;;;;;5033930;28;20109;-73
2024/02/13 12:17:08;;;;;;;0.98;0.20;;;11.90;47.60;;;;;;5035230;28;20044;-73
2024/02/13 12:19:41;;;;;;;0.25;0.20;;;11.70;46.40;;;;;;5033829;28;20025;-75
2024/02/13 12:22:13;;;;;;;0.30;0.30;;;11.40;45.10;;;;;;5035178;28;20018;-74
2024/02/13 12:24:46;;;;;;;0.10;0.10;;;11.40;46.20;;;;;;5033691;28;20026;-73
2024/02/13 12:27:15;;;;;;;1.58;0.13;;;11.40;44.20;;;;;;5034938;28;20068;-76
2024/02/13 12:29:41;;;;;;;28.80;16.73;;;11.50;44.30;;;;;;5034910;28;20115;-75
2024/02/13 12:32:16;;;;;;;30.70;25.73;;;11.60;44.60;;;;;;5035255;28;20419;-74
2024/02/13 12:34:46;;;;;;;0.30;0.30;;;11.70;46.60;;;;;;5034720;28;20026;-73
2024/02/13 12:37:20;;;;;;;172.15;49.80;;;11.60;44.40;;;;;;5033367;28;20026;-74
2024/02/13 12:39:46;;;;;;;24.85;6.93;;;11.60;45.90;;;;;;5034484;28;20544;-74
2024/02/13 12:42:13;;;;;;;4.10;0.75;;;11.70;44.10;;;;;;5033509;28;20022;-74
2024/02/13 12:44:42;;;;;;;0.28;0.28;;;11.70;43.60;;;;;;5033848;28;20666;-74
2024/02/13 12:47:13;;;;;;;1.33;0.20;;;11.70;42.80;;;;;;5034806;28;20033;-74
2024/02/13 12:49:42;;;;;;;0.20;0.20;;;11.70;43.70;;;;;;5033340;28;20112;-75
2024/02/13 12:52:11;;;;;;;0.22;0.20;;;11.50;42.90;;;;;;5032897;28;20044;-74
2024/02/13 12:54:38;;;;;;;4.65;0.20;;;11.40;43.90;;;;;;5033116;28;20037;-74
2024/02/13 12:57:04;;;;;;;0.47;0.38;;;11.30;43.30;;;;;;5034227;28;20022;-74
2024/02/13 12:59:31;;;;;;;1.38;0.82;;;11.30;41.90;;;;;;5034225;28;20136;-74